sensor_id;sensor_type;location;lat;lon;timestamp;P1;durP1;ratioP1;P2;durP2;ratioP2
78402;SDS011;67687;43.508;1.504;2024-01-27T00:02:05;71.97;;;26.30;;
78402;SDS011;67687;43.508;1.504;2024-01-27T00:04:32;73.50;;;26.37;;
78402;SDS011;67687;43.508;1.504;2024-01-27T00:06:58;67.63;;;25.08;;
78402;SDS011;67687;43.508;1.504;2024-01-27T00:09:26;67.80;;;26.08;;
78402;SDS011;67687;43.508;1.504;2024-01-27T00:11:52;63.67;;;24.30;;
78402;SDS011;67687;43.508;1.504;2024-01-27T00:14:19;60.28;;;23.25;;
78402;SDS011;67687;43.508;1.504;2024-01-27T00:16:45;63.07;;;22.83;;
78402;SDS011;67687;43.508;1.504;2024-01-27T00:19:12;63.75;;;23.65;;
78402;SDS011;67687;43.508;1.504;2024-01-27T00:21:38;64.85;;;23.27;;
78402;SDS011;67687;43.508;1.504;2024-01-27T00:24:05;64.93;;;22.85;;
78402;SDS011;67687;43.508;1.504;2024-01-27T00:26:33;68.13;;;22.85;;
78402;SDS011;67687;43.508;1.504;2024-01-27T00:28:59;67.33;;;24.40;;
78402;SDS011;67687;43.508;1.504;2024-01-27T00:31:26;74.72;;;22.92;;
78402;SDS011;67687;43.508;1.504;2024-01-27T00:33:52;67.20;;;22.48;;
78402;SDS011;67687;43.508;1.504;2024-01-27T00:36:19;71.35;;;22.73;;
78402;SDS011;67687;43.508;1.504;2024-01-27T00:38:45;72.68;;;22.90;;
78402;SDS011;67687;43.508;1.504;2024-01-27T00:41:15;79.30;;;23.77;;
78402;SDS011;67687;43.508;1.504;2024-01-27T00:43:43;75.18;;;21.75;;
78402;SDS011;67687;43.508;1.504;2024-01-27T00:46:10;118.38;;;22.20;;
78402;SDS011;67687;43.508;1.504;2024-01-27T00:48:36;101.45;;;19.55;;
78402;SDS011;67687;43.508;1.504;2024-01-27T00:51:03;74.95;;;20.35;;
78402;SDS011;67687;43.508;1.504;2024-01-27T00:53:29;84.70;;;19.17;;
78402;SDS011;67687;43.508;1.504;2024-01-27T00:55:56;103.40;;;19.67;;
78402;SDS011;67687;43.508;1.504;2024-01-27T00:58:23;88.88;;;20.55;;
78402;SDS011;67687;43.508;1.504;2024-01-27T01:00:51;101.78;;;19.10;;
78402;SDS011;67687;43.508;1.504;2024-01-27T01:03:17;126.95;;;19.77;;
78402;SDS011;67687;43.508;1.504;2024-01-27T01:05:44;78.00;;;18.77;;
78402;SDS011;67687;43.508;1.504;2024-01-27T01:08:10;98.13;;;18.30;;
78402;SDS011;67687;43.508;1.504;2024-01-27T01:10:37;104.50;;;18.10;;
78402;SDS011;67687;43.508;1.504;2024-01-27T01:13:03;53.80;;;15.98;;
78402;SDS011;67687;43.508;1.504;2024-01-27T01:15:30;61.85;;;14.38;;
78402;SDS011;67687;43.508;1.504;2024-01-27T01:17:58;51.03;;;12.83;;
78402;SDS011;67687;43.508;1.504;2024-01-27T01:20:25;79.43;;;13.15;;
78402;SDS011;67687;43.508;1.504;2024-01-27T01:22:52;49.50;;;12.85;;
78402;SDS011;67687;43.508;1.504;2024-01-27T01:25:18;50.78;;;13.40;;
78402;SDS011;67687;43.508;1.504;2024-01-27T01:27:45;58.03;;;13.38;;
78402;SDS011;67687;43.508;1.504;2024-01-27T01:30:13;58.57;;;12.37;;
78402;SDS011;67687;43.508;1.504;2024-01-27T01:32:40;57.60;;;13.43;;
78402;SDS011;67687;43.508;1.504;2024-01-27T01:35:08;51.55;;;12.88;;
78402;SDS011;67687;43.508;1.504;2024-01-27T01:37:34;56.03;;;14.90;;
78402;SDS011;67687;43.508;1.504;2024-01-27T01:40:01;70.38;;;14.23;;
78402;SDS011;67687;43.508;1.504;2024-01-27T01:42:28;52.77;;;13.20;;
78402;SDS011;67687;43.508;1.504;2024-01-27T01:44:54;52.83;;;13.15;;
78402;SDS011;67687;43.508;1.504;2024-01-27T01:47:21;42.58;;;12.18;;
78402;SDS011;67687;43.508;1.504;2024-01-27T01:49:48;46.60;;;13.13;;
78402;SDS011;67687;43.508;1.504;2024-01-27T01:52:16;70.25;;;13.45;;
78402;SDS011;67687;43.508;1.504;2024-01-27T01:54:45;58.73;;;11.63;;
78402;SDS011;67687;43.508;1.504;2024-01-27T01:57:12;51.40;;;12.95;;
78402;SDS011;67687;43.508;1.504;2024-01-27T01:59:39;78.07;;;10.93;;
78402;SDS011;67687;43.508;1.504;2024-01-27T02:02:06;50.08;;;12.05;;
78402;SDS011;67687;43.508;1.504;2024-01-27T02:04:38;46.22;;;11.75;;
78402;SDS011;67687;43.508;1.504;2024-01-27T02:07:05;47.77;;;10.97;;
78402;SDS011;67687;43.508;1.504;2024-01-27T02:09:33;51.70;;;12.02;;
78402;SDS011;67687;43.508;1.504;2024-01-27T02:11:59;40.28;;;10.20;;
78402;SDS011;67687;43.508;1.504;2024-01-27T02:14:26;40.85;;;10.50;;
78402;SDS011;67687;43.508;1.504;2024-01-27T02:16:52;40.33;;;10.40;;
78402;SDS011;67687;43.508;1.504;2024-01-27T02:19:19;39.70;;;11.73;;
78402;SDS011;67687;43.508;1.504;2024-01-27T02:21:46;39.03;;;11.50;;
78402;SDS011;67687;43.508;1.504;2024-01-27T02:24:14;45.08;;;10.70;;
78402;SDS011;67687;43.508;1.504;2024-01-27T02:26:40;48.42;;;10.90;;
78402;SDS011;67687;43.508;1.504;2024-01-27T02:29:07;47.15;;;10.38;;
78402;SDS011;67687;43.508;1.504;2024-01-27T02:31:34;38.70;;;9.87;;
78402;SDS011;67687;43.508;1.504;2024-01-27T02:34:00;41.22;;;9.52;;
78402;SDS011;67687;43.508;1.504;2024-01-27T02:36:26;36.45;;;9.63;;
78402;SDS011;67687;43.508;1.504;2024-01-27T02:38:53;46.60;;;9.43;;
78402;SDS011;67687;43.508;1.504;2024-01-27T02:41:21;35.42;;;10.00;;
78402;SDS011;67687;43.508;1.504;2024-01-27T02:43:47;44.17;;;9.37;;
78402;SDS011;67687;43.508;1.504;2024-01-27T02:46:14;41.15;;;8.57;;
78402;SDS011;67687;43.508;1.504;2024-01-27T02:48:41;59.38;;;9.48;;
78402;SDS011;67687;43.508;1.504;2024-01-27T02:51:07;62.08;;;8.68;;
78402;SDS011;67687;43.508;1.504;2024-01-27T02:53:34;31.92;;;8.55;;
78402;SDS011;67687;43.508;1.504;2024-01-27T02:56:00;56.90;;;7.83;;
78402;SDS011;67687;43.508;1.504;2024-01-27T02:58:28;31.63;;;7.45;;
78402;SDS011;67687;43.508;1.504;2024-01-27T03:00:54;42.40;;;7.85;;
78402;SDS011;67687;43.508;1.504;2024-01-27T03:03:21;48.47;;;9.35;;
78402;SDS011;67687;43.508;1.504;2024-01-27T03:05:47;41.03;;;7.50;;
78402;SDS011;67687;43.508;1.504;2024-01-27T03:08:14;27.23;;;7.60;;
78402;SDS011;67687;43.508;1.504;2024-01-27T03:10:40;31.85;;;7.65;;
78402;SDS011;67687;43.508;1.504;2024-01-27T03:13:07;32.83;;;8.23;;
78402;SDS011;67687;43.508;1.504;2024-01-27T03:15:34;31.05;;;7.55;;
78402;SDS011;67687;43.508;1.504;2024-01-27T03:18:02;48.72;;;7.53;;
78402;SDS011;67687;43.508;1.504;2024-01-27T03:20:29;28.63;;;7.17;;
78402;SDS011;67687;43.508;1.504;2024-01-27T03:22:57;29.00;;;7.55;;
78402;SDS011;67687;43.508;1.504;2024-01-27T03:25:24;34.20;;;7.30;;
78402;SDS011;67687;43.508;1.504;2024-01-27T03:27:50;49.45;;;7.25;;
78402;SDS011;67687;43.508;1.504;2024-01-27T03:30:17;76.88;;;8.68;;
78402;SDS011;67687;43.508;1.504;2024-01-27T03:32:45;45.63;;;8.87;;
78402;SDS011;67687;43.508;1.504;2024-01-27T03:35:12;47.70;;;7.78;;
78402;SDS011;67687;43.508;1.504;2024-01-27T03:37:38;54.08;;;8.73;;
78402;SDS011;67687;43.508;1.504;2024-01-27T03:40:05;33.33;;;7.65;;
78402;SDS011;67687;43.508;1.504;2024-01-27T03:42:32;37.40;;;8.20;;
78402;SDS011;67687;43.508;1.504;2024-01-27T03:44:59;40.73;;;7.13;;
78402;SDS011;67687;43.508;1.504;2024-01-27T03:47:25;43.13;;;7.60;;
78402;SDS011;67687;43.508;1.504;2024-01-27T03:49:53;79.43;;;9.25;;
78402;SDS011;67687;43.508;1.504;2024-01-27T03:52:20;86.93;;;8.40;;
78402;SDS011;67687;43.508;1.504;2024-01-27T03:54:46;46.17;;;7.97;;
78402;SDS011;67687;43.508;1.504;2024-01-27T03:57:13;59.07;;;6.97;;
78402;SDS011;67687;43.508;1.504;2024-01-27T03:59:40;46.92;;;6.50;;
78402;SDS011;67687;43.508;1.504;2024-01-27T04:02:06;35.30;;;6.75;;
78402;SDS011;67687;43.508;1.504;2024-01-27T04:04:32;27.63;;;6.32;;
78402;SDS011;67687;43.508;1.504;2024-01-27T04:07:00;37.75;;;6.78;;
78402;SDS011;67687;43.508;1.504;2024-01-27T04:09:27;69.43;;;8.10;;
78402;SDS011;67687;43.508;1.504;2024-01-27T04:11:54;46.53;;;6.97;;
78402;SDS011;67687;43.508;1.504;2024-01-27T04:14:20;60.63;;;7.00;;
78402;SDS011;67687;43.508;1.504;2024-01-27T04:16:49;33.33;;;6.63;;
78402;SDS011;67687;43.508;1.504;2024-01-27T04:19:16;106.40;;;8.80;;
78402;SDS011;67687;43.508;1.504;2024-01-27T04:21:42;81.63;;;8.00;;
78402;SDS011;67687;43.508;1.504;2024-01-27T04:24:10;67.85;;;7.53;;
78402;SDS011;67687;43.508;1.504;2024-01-27T04:26:36;90.75;;;8.82;;
78402;SDS011;67687;43.508;1.504;2024-01-27T04:29:03;92.22;;;8.40;;
78402;SDS011;67687;43.508;1.504;2024-01-27T04:31:29;141.82;;;9.13;;
78402;SDS011;67687;43.508;1.504;2024-01-27T04:33:56;92.53;;;7.90;;
78402;SDS011;67687;43.508;1.504;2024-01-27T04:36:26;55.70;;;7.60;;
78402;SDS011;67687;43.508;1.504;2024-01-27T04:38:53;45.22;;;7.35;;
78402;SDS011;67687;43.508;1.504;2024-01-27T04:41:21;44.42;;;7.45;;
78402;SDS011;67687;43.508;1.504;2024-01-27T04:43:48;67.43;;;6.95;;
78402;SDS011;67687;43.508;1.504;2024-01-27T04:46:15;39.07;;;7.07;;
78402;SDS011;67687;43.508;1.504;2024-01-27T04:48:41;37.30;;;6.80;;
78402;SDS011;67687;43.508;1.504;2024-01-27T04:51:08;46.70;;;7.07;;
78402;SDS011;67687;43.508;1.504;2024-01-27T04:53:35;69.57;;;7.60;;
78402;SDS011;67687;43.508;1.504;2024-01-27T04:56:01;70.07;;;6.68;;
78402;SDS011;67687;43.508;1.504;2024-01-27T04:58:34;60.10;;;6.20;;
78402;SDS011;67687;43.508;1.504;2024-01-27T05:01:01;64.82;;;6.80;;
78402;SDS011;67687;43.508;1.504;2024-01-27T05:03:28;47.97;;;6.47;;
78402;SDS011;67687;43.508;1.504;2024-01-27T05:05:54;60.63;;;6.50;;
78402;SDS011;67687;43.508;1.504;2024-01-27T05:08:20;25.60;;;5.88;;
78402;SDS011;67687;43.508;1.504;2024-01-27T05:10:47;46.10;;;5.60;;
78402;SDS011;67687;43.508;1.504;2024-01-27T05:13:13;66.47;;;6.93;;
78402;SDS011;67687;43.508;1.504;2024-01-27T05:15:41;41.33;;;6.05;;
78402;SDS011;67687;43.508;1.504;2024-01-27T05:18:08;46.17;;;5.40;;
78402;SDS011;67687;43.508;1.504;2024-01-27T05:20:35;34.47;;;5.55;;
78402;SDS011;67687;43.508;1.504;2024-01-27T05:23:02;84.57;;;6.07;;
78402;SDS011;67687;43.508;1.504;2024-01-27T05:25:28;48.50;;;5.15;;
78402;SDS011;67687;43.508;1.504;2024-01-27T05:27:55;29.40;;;5.15;;
78402;SDS011;67687;43.508;1.504;2024-01-27T05:30:21;30.70;;;5.28;;
78402;SDS011;67687;43.508;1.504;2024-01-27T05:32:49;25.38;;;4.35;;
78402;SDS011;67687;43.508;1.504;2024-01-27T05:35:16;50.67;;;4.50;;
78402;SDS011;67687;43.508;1.504;2024-01-27T05:37:42;35.70;;;4.55;;
78402;SDS011;67687;43.508;1.504;2024-01-27T05:40:09;34.55;;;4.57;;
78402;SDS011;67687;43.508;1.504;2024-01-27T05:42:36;50.25;;;5.97;;
78402;SDS011;67687;43.508;1.504;2024-01-27T05:45:02;26.52;;;4.65;;
78402;SDS011;67687;43.508;1.504;2024-01-27T05:47:29;27.10;;;4.40;;
78402;SDS011;67687;43.508;1.504;2024-01-27T05:49:57;48.50;;;4.53;;
78402;SDS011;67687;43.508;1.504;2024-01-27T05:52:23;44.22;;;4.57;;
78402;SDS011;67687;43.508;1.504;2024-01-27T05:54:50;31.70;;;4.53;;
78402;SDS011;67687;43.508;1.504;2024-01-27T05:57:17;15.68;;;3.97;;
78402;SDS011;67687;43.508;1.504;2024-01-27T05:59:43;22.67;;;4.23;;
78402;SDS011;67687;43.508;1.504;2024-01-27T06:02:10;31.35;;;3.50;;
78402;SDS011;67687;43.508;1.504;2024-01-27T06:04:36;24.17;;;3.40;;
78402;SDS011;67687;43.508;1.504;2024-01-27T06:07:04;19.90;;;3.38;;
78402;SDS011;67687;43.508;1.504;2024-01-27T06:09:31;19.75;;;3.40;;
78402;SDS011;67687;43.508;1.504;2024-01-27T06:11:59;17.20;;;3.73;;
78402;SDS011;67687;43.508;1.504;2024-01-27T06:14:25;24.02;;;3.40;;
78402;SDS011;67687;43.508;1.504;2024-01-27T06:16:52;28.75;;;3.72;;
78402;SDS011;67687;43.508;1.504;2024-01-27T06:19:18;27.05;;;3.38;;
78402;SDS011;67687;43.508;1.504;2024-01-27T06:21:45;26.20;;;3.70;;
78402;SDS011;67687;43.508;1.504;2024-01-27T06:24:13;22.37;;;3.70;;
78402;SDS011;67687;43.508;1.504;2024-01-27T06:26:39;22.23;;;3.40;;
78402;SDS011;67687;43.508;1.504;2024-01-27T06:29:06;26.45;;;3.38;;
78402;SDS011;67687;43.508;1.504;2024-01-27T06:31:32;19.27;;;2.90;;
78402;SDS011;67687;43.508;1.504;2024-01-27T06:33:59;30.23;;;3.45;;
78402;SDS011;67687;43.508;1.504;2024-01-27T06:36:25;13.67;;;3.40;;
78402;SDS011;67687;43.508;1.504;2024-01-27T06:38:52;48.47;;;3.60;;
78402;SDS011;67687;43.508;1.504;2024-01-27T06:41:20;41.65;;;3.03;;
78402;SDS011;67687;43.508;1.504;2024-01-27T06:43:46;31.75;;;2.33;;
78402;SDS011;67687;43.508;1.504;2024-01-27T06:46:13;30.70;;;2.63;;
78402;SDS011;67687;43.508;1.504;2024-01-27T06:48:40;31.50;;;2.90;;
78402;SDS011;67687;43.508;1.504;2024-01-27T06:51:06;16.63;;;2.42;;
78402;SDS011;67687;43.508;1.504;2024-01-27T06:53:33;12.90;;;2.75;;
78402;SDS011;67687;43.508;1.504;2024-01-27T06:55:59;8.85;;;2.50;;
78402;SDS011;67687;43.508;1.504;2024-01-27T06:58:27;33.65;;;3.58;;
78402;SDS011;67687;43.508;1.504;2024-01-27T07:00:54;34.73;;;3.23;;
78402;SDS011;67687;43.508;1.504;2024-01-27T07:03:21;22.77;;;3.45;;
78402;SDS011;67687;43.508;1.504;2024-01-27T07:05:47;22.25;;;3.40;;
78402;SDS011;67687;43.508;1.504;2024-01-27T07:08:14;14.82;;;3.17;;
78402;SDS011;67687;43.508;1.504;2024-01-27T07:10:41;44.28;;;4.07;;
78402;SDS011;67687;43.508;1.504;2024-01-27T07:13:08;35.90;;;3.33;;
78402;SDS011;67687;43.508;1.504;2024-01-27T07:15:36;46.65;;;4.05;;
78402;SDS011;67687;43.508;1.504;2024-01-27T07:18:03;50.13;;;4.00;;
78402;SDS011;67687;43.508;1.504;2024-01-27T07:20:30;47.25;;;3.95;;
78402;SDS011;67687;43.508;1.504;2024-01-27T07:22:57;43.05;;;3.67;;
78402;SDS011;67687;43.508;1.504;2024-01-27T07:25:23;21.47;;;3.40;;
78402;SDS011;67687;43.508;1.504;2024-01-27T07:27:50;48.92;;;6.28;;
78402;SDS011;67687;43.508;1.504;2024-01-27T07:30:16;23.38;;;3.47;;
78402;SDS011;67687;43.508;1.504;2024-01-27T07:32:44;19.33;;;3.28;;
78402;SDS011;67687;43.508;1.504;2024-01-27T07:35:10;33.83;;;4.20;;
78402;SDS011;67687;43.508;1.504;2024-01-27T07:37:37;34.60;;;3.67;;
78402;SDS011;67687;43.508;1.504;2024-01-27T07:40:04;22.30;;;3.83;;
78402;SDS011;67687;43.508;1.504;2024-01-27T07:42:31;35.78;;;4.60;;
78402;SDS011;67687;43.508;1.504;2024-01-27T07:44:57;20.65;;;3.95;;
78402;SDS011;67687;43.508;1.504;2024-01-27T07:47:24;20.30;;;3.08;;
78402;SDS011;67687;43.508;1.504;2024-01-27T07:49:52;30.53;;;3.47;;
78402;SDS011;67687;43.508;1.504;2024-01-27T07:52:18;27.88;;;3.05;;
78402;SDS011;67687;43.508;1.504;2024-01-27T07:54:45;45.92;;;3.65;;
78402;SDS011;67687;43.508;1.504;2024-01-27T07:57:11;16.02;;;2.80;;
78402;SDS011;67687;43.508;1.504;2024-01-27T07:59:38;26.58;;;3.67;;
78402;SDS011;67687;43.508;1.504;2024-01-27T08:02:05;18.73;;;2.73;;
78402;SDS011;67687;43.508;1.504;2024-01-27T08:04:31;37.78;;;3.60;;
78402;SDS011;67687;43.508;1.504;2024-01-27T08:06:59;22.15;;;3.40;;
78402;SDS011;67687;43.508;1.504;2024-01-27T08:09:31;71.10;;;4.85;;
78402;SDS011;67687;43.508;1.504;2024-01-27T08:11:58;40.20;;;4.00;;
78402;SDS011;67687;43.508;1.504;2024-01-27T08:14:24;22.27;;;3.10;;
78402;SDS011;67687;43.508;1.504;2024-01-27T08:16:50;39.35;;;3.70;;
78402;SDS011;67687;43.508;1.504;2024-01-27T08:19:17;22.75;;;4.55;;
78402;SDS011;67687;43.508;1.504;2024-01-27T08:21:45;31.88;;;4.45;;
78402;SDS011;67687;43.508;1.504;2024-01-27T08:24:13;33.40;;;4.03;;
78402;SDS011;67687;43.508;1.504;2024-01-27T08:26:40;45.80;;;3.97;;
78402;SDS011;67687;43.508;1.504;2024-01-27T08:29:07;28.00;;;3.55;;
78402;SDS011;67687;43.508;1.504;2024-01-27T08:31:33;19.15;;;3.28;;
78402;SDS011;67687;43.508;1.504;2024-01-27T08:34:00;20.85;;;3.58;;
78402;SDS011;67687;43.508;1.504;2024-01-27T08:36:26;9.70;;;2.83;;
78402;SDS011;67687;43.508;1.504;2024-01-27T08:38:53;12.07;;;3.03;;
78402;SDS011;67687;43.508;1.504;2024-01-27T08:41:21;15.73;;;3.50;;
78402;SDS011;67687;43.508;1.504;2024-01-27T08:43:47;29.30;;;3.03;;
78402;SDS011;67687;43.508;1.504;2024-01-27T08:46:13;45.08;;;3.90;;
78402;SDS011;67687;43.508;1.504;2024-01-27T08:48:42;34.22;;;3.78;;
78402;SDS011;67687;43.508;1.504;2024-01-27T08:51:09;31.53;;;3.30;;
78402;SDS011;67687;43.508;1.504;2024-01-27T08:53:36;28.45;;;3.58;;
78402;SDS011;67687;43.508;1.504;2024-01-27T08:56:03;74.82;;;4.72;;
78402;SDS011;67687;43.508;1.504;2024-01-27T08:58:32;55.35;;;4.72;;
78402;SDS011;67687;43.508;1.504;2024-01-27T09:00:58;30.95;;;4.40;;
78402;SDS011;67687;43.508;1.504;2024-01-27T09:03:30;29.23;;;4.00;;
78402;SDS011;67687;43.508;1.504;2024-01-27T09:05:56;35.38;;;5.15;;
78402;SDS011;67687;43.508;1.504;2024-01-27T09:08:23;51.08;;;6.40;;
78402;SDS011;67687;43.508;1.504;2024-01-27T09:10:49;60.40;;;6.30;;
78402;SDS011;67687;43.508;1.504;2024-01-27T09:13:16;25.38;;;4.97;;
78402;SDS011;67687;43.508;1.504;2024-01-27T09:15:45;31.53;;;5.87;;
78402;SDS011;67687;43.508;1.504;2024-01-27T09:18:11;28.55;;;6.47;;
78402;SDS011;67687;43.508;1.504;2024-01-27T09:20:37;37.08;;;6.30;;
78402;SDS011;67687;43.508;1.504;2024-01-27T09:23:04;24.58;;;6.20;;
78402;SDS011;67687;43.508;1.504;2024-01-27T09:25:30;101.28;;;8.20;;
78402;SDS011;67687;43.508;1.504;2024-01-27T09:27:57;61.60;;;7.43;;
78402;SDS011;67687;43.508;1.504;2024-01-27T09:30:26;16.85;;;5.93;;
78402;SDS011;67687;43.508;1.504;2024-01-27T09:32:53;19.70;;;6.00;;
78402;SDS011;67687;43.508;1.504;2024-01-27T09:35:20;28.08;;;5.70;;
78402;SDS011;67687;43.508;1.504;2024-01-27T09:37:46;15.45;;;5.50;;
78402;SDS011;67687;43.508;1.504;2024-01-27T09:40:13;11.47;;;4.27;;
78402;SDS011;67687;43.508;1.504;2024-01-27T09:42:39;37.00;;;4.80;;
78402;SDS011;67687;43.508;1.504;2024-01-27T09:45:11;20.70;;;4.25;;
78402;SDS011;67687;43.508;1.504;2024-01-27T09:47:38;21.65;;;3.88;;
78402;SDS011;67687;43.508;1.504;2024-01-27T09:50:07;13.27;;;3.75;;
78402;SDS011;67687;43.508;1.504;2024-01-27T09:52:34;24.63;;;3.67;;
78402;SDS011;67687;43.508;1.504;2024-01-27T09:55:00;13.13;;;3.50;;
78402;SDS011;67687;43.508;1.504;2024-01-27T09:57:28;28.15;;;3.88;;
78402;SDS011;67687;43.508;1.504;2024-01-27T09:59:54;9.88;;;3.50;;
78402;SDS011;67687;43.508;1.504;2024-01-27T10:02:22;15.80;;;3.60;;
78402;SDS011;67687;43.508;1.504;2024-01-27T10:04:50;36.30;;;3.63;;
78402;SDS011;67687;43.508;1.504;2024-01-27T10:07:18;40.03;;;4.03;;
78402;SDS011;67687;43.508;1.504;2024-01-27T10:09:48;42.65;;;4.00;;
78402;SDS011;67687;43.508;1.504;2024-01-27T10:12:14;13.18;;;3.80;;
78402;SDS011;67687;43.508;1.504;2024-01-27T10:14:42;47.20;;;4.20;;
78402;SDS011;67687;43.508;1.504;2024-01-27T10:17:11;14.23;;;4.00;;
78402;SDS011;67687;43.508;1.504;2024-01-27T10:19:38;28.27;;;4.03;;
78402;SDS011;67687;43.508;1.504;2024-01-27T10:22:04;37.35;;;3.90;;
78402;SDS011;67687;43.508;1.504;2024-01-27T10:24:32;43.20;;;4.40;;
78402;SDS011;67687;43.508;1.504;2024-01-27T10:27:00;24.10;;;3.95;;
78402;SDS011;67687;43.508;1.504;2024-01-27T10:29:28;9.43;;;3.90;;
78402;SDS011;67687;43.508;1.504;2024-01-27T10:31:54;19.77;;;4.35;;
78402;SDS011;67687;43.508;1.504;2024-01-27T10:34:21;12.38;;;4.45;;
78402;SDS011;67687;43.508;1.504;2024-01-27T10:36:47;49.28;;;5.05;;
78402;SDS011;67687;43.508;1.504;2024-01-27T10:39:17;88.35;;;5.18;;
78402;SDS011;67687;43.508;1.504;2024-01-27T10:41:46;16.70;;;4.13;;
78402;SDS011;67687;43.508;1.504;2024-01-27T10:44:14;106.93;;;6.13;;
78402;SDS011;67687;43.508;1.504;2024-01-27T10:46:41;17.95;;;4.53;;
78402;SDS011;67687;43.508;1.504;2024-01-27T10:49:09;32.17;;;5.63;;
78402;SDS011;67687;43.508;1.504;2024-01-27T10:51:38;27.55;;;5.03;;
78402;SDS011;67687;43.508;1.504;2024-01-27T10:54:08;20.83;;;6.17;;
78402;SDS011;67687;43.508;1.504;2024-01-27T10:56:37;20.80;;;5.55;;
78402;SDS011;67687;43.508;1.504;2024-01-27T10:59:05;39.20;;;5.53;;
78402;SDS011;67687;43.508;1.504;2024-01-27T11:01:33;11.70;;;4.45;;
78402;SDS011;67687;43.508;1.504;2024-01-27T11:04:01;16.20;;;4.55;;
78402;SDS011;67687;43.508;1.504;2024-01-27T11:06:28;11.23;;;4.63;;
78402;SDS011;67687;43.508;1.504;2024-01-27T11:08:55;20.15;;;4.78;;
78402;SDS011;67687;43.508;1.504;2024-01-27T11:11:22;15.88;;;4.93;;
78402;SDS011;67687;43.508;1.504;2024-01-27T11:13:49;15.60;;;5.07;;
78402;SDS011;67687;43.508;1.504;2024-01-27T11:16:17;14.15;;;4.93;;
78402;SDS011;67687;43.508;1.504;2024-01-27T11:18:44;14.07;;;5.23;;
78402;SDS011;67687;43.508;1.504;2024-01-27T11:21:12;26.98;;;4.90;;
78402;SDS011;67687;43.508;1.504;2024-01-27T11:23:39;20.50;;;4.80;;
78402;SDS011;67687;43.508;1.504;2024-01-27T11:26:08;40.25;;;5.68;;
78402;SDS011;67687;43.508;1.504;2024-01-27T11:28:34;16.42;;;4.50;;
78402;SDS011;67687;43.508;1.504;2024-01-27T11:31:03;10.47;;;5.03;;
78402;SDS011;67687;43.508;1.504;2024-01-27T11:33:31;45.42;;;5.40;;
78402;SDS011;67687;43.508;1.504;2024-01-27T11:36:00;13.68;;;4.70;;
78402;SDS011;67687;43.508;1.504;2024-01-27T11:38:27;30.73;;;5.13;;
78402;SDS011;67687;43.508;1.504;2024-01-27T11:40:53;28.20;;;6.10;;
78402;SDS011;67687;43.508;1.504;2024-01-27T11:43:20;23.07;;;5.00;;
78402;SDS011;67687;43.508;1.504;2024-01-27T11:45:54;10.50;;;5.30;;
78402;SDS011;67687;43.508;1.504;2024-01-27T11:48:21;9.82;;;4.78;;
78402;SDS011;67687;43.508;1.504;2024-01-27T11:50:49;8.98;;;5.00;;
78402;SDS011;67687;43.508;1.504;2024-01-27T11:53:26;10.63;;;5.00;;
78402;SDS011;67687;43.508;1.504;2024-01-27T11:55:54;9.57;;;5.30;;
78402;SDS011;67687;43.508;1.504;2024-01-27T11:58:20;8.70;;;4.90;;
78402;SDS011;67687;43.508;1.504;2024-01-27T12:00:47;9.70;;;5.45;;
78402;SDS011;67687;43.508;1.504;2024-01-27T12:03:14;10.88;;;5.15;;
78402;SDS011;67687;43.508;1.504;2024-01-27T12:05:40;8.90;;;4.82;;
78402;SDS011;67687;43.508;1.504;2024-01-27T12:08:08;10.17;;;5.63;;
78402;SDS011;67687;43.508;1.504;2024-01-27T12:10:35;9.68;;;5.90;;
78402;SDS011;67687;43.508;1.504;2024-01-27T12:13:02;10.43;;;5.90;;
78402;SDS011;67687;43.508;1.504;2024-01-27T12:15:28;10.57;;;5.32;;
78402;SDS011;67687;43.508;1.504;2024-01-27T12:17:55;11.32;;;6.10;;
78402;SDS011;67687;43.508;1.504;2024-01-27T12:20:21;12.87;;;6.37;;
78402;SDS011;67687;43.508;1.504;2024-01-27T12:22:48;11.48;;;5.57;;
78402;SDS011;67687;43.508;1.504;2024-01-27T12:25:17;18.92;;;5.85;;
78402;SDS011;67687;43.508;1.504;2024-01-27T12:27:43;12.90;;;6.18;;
78402;SDS011;67687;43.508;1.504;2024-01-27T12:30:10;11.93;;;6.47;;
78402;SDS011;67687;43.508;1.504;2024-01-27T12:32:37;11.73;;;6.90;;
78402;SDS011;67687;43.508;1.504;2024-01-27T12:35:04;13.15;;;6.88;;
78402;SDS011;67687;43.508;1.504;2024-01-27T12:37:30;15.57;;;7.20;;
78402;SDS011;67687;43.508;1.504;2024-01-27T12:39:57;12.65;;;6.32;;
78402;SDS011;67687;43.508;1.504;2024-01-27T12:42:25;13.05;;;7.25;;
78402;SDS011;67687;43.508;1.504;2024-01-27T12:44:51;11.57;;;6.80;;
78402;SDS011;67687;43.508;1.504;2024-01-27T12:47:18;12.18;;;6.65;;
78402;SDS011;67687;43.508;1.504;2024-01-27T12:49:45;13.50;;;6.78;;
78402;SDS011;67687;43.508;1.504;2024-01-27T12:52:12;11.95;;;6.68;;
78402;SDS011;67687;43.508;1.504;2024-01-27T12:54:38;11.50;;;6.75;;
78402;SDS011;67687;43.508;1.504;2024-01-27T12:57:05;12.47;;;7.23;;
78402;SDS011;67687;43.508;1.504;2024-01-27T12:59:35;13.02;;;8.02;;
78402;SDS011;67687;43.508;1.504;2024-01-27T13:02:01;12.32;;;7.35;;
78402;SDS011;67687;43.508;1.504;2024-01-27T13:04:28;14.82;;;7.82;;
78402;SDS011;67687;43.508;1.504;2024-01-27T13:06:54;17.58;;;10.40;;
78402;SDS011;67687;43.508;1.504;2024-01-27T13:09:21;16.03;;;9.17;;
78402;SDS011;67687;43.508;1.504;2024-01-27T13:11:47;16.38;;;8.63;;
78402;SDS011;67687;43.508;1.504;2024-01-27T13:14:14;13.73;;;8.10;;
78402;SDS011;67687;43.508;1.504;2024-01-27T13:16:44;12.82;;;7.25;;
78402;SDS011;67687;43.508;1.504;2024-01-27T13:19:10;13.13;;;6.95;;
78402;SDS011;67687;43.508;1.504;2024-01-27T13:21:37;12.83;;;7.63;;
78402;SDS011;67687;43.508;1.504;2024-01-27T13:24:05;13.02;;;7.85;;
78402;SDS011;67687;43.508;1.504;2024-01-27T13:26:32;14.20;;;8.20;;
78402;SDS011;67687;43.508;1.504;2024-01-27T13:29:02;13.60;;;8.13;;
78402;SDS011;67687;43.508;1.504;2024-01-27T13:31:29;14.15;;;8.32;;
78402;SDS011;67687;43.508;1.504;2024-01-27T13:33:57;14.33;;;7.80;;
78402;SDS011;67687;43.508;1.504;2024-01-27T13:36:24;12.07;;;7.82;;
78402;SDS011;67687;43.508;1.504;2024-01-27T13:38:51;14.13;;;8.90;;
78402;SDS011;67687;43.508;1.504;2024-01-27T13:41:17;17.35;;;9.82;;
78402;SDS011;67687;43.508;1.504;2024-01-27T13:43:44;15.85;;;8.65;;
78402;SDS011;67687;43.508;1.504;2024-01-27T13:46:11;12.77;;;7.77;;
78402;SDS011;67687;43.508;1.504;2024-01-27T13:48:37;13.10;;;8.10;;
78402;SDS011;67687;43.508;1.504;2024-01-27T13:51:05;13.57;;;8.30;;
78402;SDS011;67687;43.508;1.504;2024-01-27T13:53:32;13.10;;;8.00;;
78402;SDS011;67687;43.508;1.504;2024-01-27T13:55:59;12.13;;;7.40;;
78402;SDS011;67687;43.508;1.504;2024-01-27T13:58:26;12.13;;;6.90;;
78402;SDS011;67687;43.508;1.504;2024-01-27T14:00:52;13.70;;;7.80;;
78402;SDS011;67687;43.508;1.504;2024-01-27T14:03:19;11.35;;;7.50;;
78402;SDS011;67687;43.508;1.504;2024-01-27T14:05:45;11.70;;;7.57;;
78402;SDS011;67687;43.508;1.504;2024-01-27T14:08:14;12.38;;;7.80;;
78402;SDS011;67687;43.508;1.504;2024-01-27T14:10:42;12.50;;;7.47;;
78402;SDS011;67687;43.508;1.504;2024-01-27T14:13:09;11.88;;;7.65;;
78402;SDS011;67687;43.508;1.504;2024-01-27T14:15:35;11.10;;;6.80;;
78402;SDS011;67687;43.508;1.504;2024-01-27T14:18:02;10.85;;;6.93;;
78402;SDS011;67687;43.508;1.504;2024-01-27T14:20:31;12.07;;;7.18;;
78402;SDS011;67687;43.508;1.504;2024-01-27T14:22:58;11.83;;;7.50;;
78402;SDS011;67687;43.508;1.504;2024-01-27T14:25:27;12.93;;;7.25;;
78402;SDS011;67687;43.508;1.504;2024-01-27T14:27:54;11.23;;;7.10;;
78402;SDS011;67687;43.508;1.504;2024-01-27T14:30:20;12.65;;;7.75;;
78402;SDS011;67687;43.508;1.504;2024-01-27T14:32:48;12.48;;;7.90;;